Terminal Aerodrome Forecast
Issued by NWS Spokane, WA

Home | Current Version | Previous Version | Text Only | Print | Product List | Glossary On
Versions: 1 2 3 4 5 6 7 8 9 10 11 12 13
000
FTUS46 KOTX 272320
TAFEAT
TAF
KEAT 272320Z 2800/2824 30015G23KT P6SM FEW070 SCT150 BKN200
     FM280300 30015G23KT P6SM SCT120 BKN150
     FM280600 30011KT P6SM BKN120
     FM281200 30009KT P6SM SCT100 BKN200
     FM281900 13007KT P6SM SCT090 BKN200=

USA.gov is the U.S. government's official web portal to all federal, state and local government web resources and services.